Triadelphia, West Virginia
Current Conditions -  °F | °C
As of 5:53 AM on Sunday 23 Nov 2014 (Local Time) from KHLG Reporting Station
Broken Clouds Broken Clouds  
Wind Chill: 45°   Ceiling: 7500
Heat Index: 49°   Visibility: 10mi
Dew Point: 25°   Wind: 8mph
Humidity: 39%   Direction: 180°S
Pressure: 30.08"   Gusts: NA
Location:  40.05°N, 80.63°W
Report Text: KHLG 231053Z AUTO 18007KT 10SM SCT060 BKN075 BKN100 09/M04 A3008 RMK AO2 SLP191 T00941039
Loading
Personal Weather Stations






























Interactive Weather Map New forecast layout! Learn more

10-Day Weather Forecast

Advertisements
Track Severe Weather on mobile